createdAt,value
2024-01-26T00:02:02.125Z,100544.57
2024-01-26T00:04:30.339Z,100551.52
2024-01-26T00:06:58.682Z,100555.58
2024-01-26T00:09:26.742Z,100562.05
2024-01-26T00:11:54.574Z,100569.37
2024-01-26T00:14:22.143Z,100572.61
2024-01-26T00:16:49.693Z,100573.59
2024-01-26T00:19:17.444Z,100570.31
2024-01-26T00:21:45.256Z,100561.57
2024-01-26T00:24:12.878Z,100564.11
2024-01-26T00:26:40.443Z,100567.31
2024-01-26T00:29:08.011Z,100566.05
2024-01-26T00:31:35.997Z,100563.09
2024-01-26T00:34:03.602Z,100565.66
2024-01-26T00:36:31.549Z,100561.85
2024-01-26T00:38:59.152Z,100566.79
2024-01-26T00:41:26.721Z,100567.09
2024-01-26T00:43:54.292Z,100565.02
2024-01-26T00:46:21.847Z,100568.10
2024-01-26T00:48:49.511Z,100565.52
2024-01-26T00:51:17.367Z,100567.05
2024-01-26T00:53:45.026Z,100569.23
2024-01-26T00:56:12.582Z,100571.09
2024-01-26T00:58:40.144Z,100571.58
2024-01-26T01:01:07.798Z,100574.46
2024-01-26T01:03:35.617Z,100578.37
2024-01-26T01:06:03.415Z,100577.31
2024-01-26T01:08:31.259Z,100576.45
2024-01-26T01:10:58.953Z,100575.27
2024-01-26T01:13:26.626Z,100576.11
2024-01-26T01:15:54.290Z,100573.71
2024-01-26T01:18:21.913Z,100579.18
2024-01-26T01:20:50.061Z,100587.04
2024-01-26T01:23:17.694Z,100591.34
2024-01-26T01:25:45.331Z,100587.11
2024-01-26T01:28:12.900Z,100588.48
2024-01-26T01:30:40.565Z,100589.17
2024-01-26T01:33:08.264Z,100601.31
2024-01-26T01:35:36.022Z,100598.04
2024-01-26T01:38:03.871Z,100599.88
2024-01-26T01:40:31.629Z,100605.67
2024-01-26T01:42:59.179Z,100606.84
2024-01-26T01:45:27.142Z,100604.93
2024-01-26T01:47:54.761Z,100610.23
2024-01-26T01:50:22.579Z,100614.16
2024-01-26T01:52:50.234Z,100615.36
2024-01-26T01:55:17.883Z,100614.35
2024-01-26T01:57:45.453Z,100615.91
2024-01-26T02:00:13.153Z,100618.49
2024-01-26T02:02:40.703Z,100618.30
2024-01-26T02:05:08.509Z,100619.13
2024-01-26T02:07:36.303Z,100620.29
2024-01-26T02:10:04.284Z,100617.35
2024-01-26T02:12:31.940Z,100617.16
2024-01-26T02:14:59.705Z,100615.11
2024-01-26T02:17:27.375Z,100615.61
2024-01-26T02:19:54.921Z,100613.23
2024-01-26T02:22:22.570Z,100610.15
2024-01-26T02:24:50.737Z,100611.69
2024-01-26T02:27:19.052Z,100611.86
2024-01-26T02:29:46.764Z,100612.37
2024-01-26T02:32:14.366Z,100611.34
2024-01-26T02:34:42.057Z,100615.61
2024-01-26T02:37:09.773Z,100622.45
2024-01-26T02:39:37.435Z,100627.23
2024-01-26T02:42:05.106Z,100626.39
2024-01-26T02:44:32.901Z,100629.48
2024-01-26T02:47:00.618Z,100633.12
2024-01-26T02:49:28.268Z,100630.09
2024-01-26T02:51:56.060Z,100628.91
2024-01-26T02:54:24.575Z,100628.23
2024-01-26T02:56:52.698Z,100623.40
2024-01-26T02:59:20.665Z,100626.10
2024-01-26T03:01:48.494Z,100632.55
2024-01-26T03:04:16.409Z,100631.48
2024-01-26T03:06:44.424Z,100635.89
2024-01-26T03:09:12.256Z,100635.86
2024-01-26T03:11:40.103Z,100634.80
2024-01-26T03:14:08.041Z,100639.30
2024-01-26T03:16:35.775Z,100645.30
2024-01-26T03:19:03.680Z,100646.02
2024-01-26T03:21:31.471Z,100648.11
2024-01-26T03:23:59.095Z,100651.77
2024-01-26T03:26:27.100Z,100649.25
2024-01-26T03:28:54.759Z,100642.44
2024-01-26T03:31:22.317Z,100640.05
2024-01-26T03:33:50.182Z,100644.15
2024-01-26T03:36:18.032Z,100646.35
2024-01-26T03:38:45.868Z,100644.40
2024-01-26T03:41:13.509Z,100649.97
2024-01-26T03:43:41.142Z,100648.08
2024-01-26T03:46:08.817Z,100651.67
2024-01-26T03:48:36.533Z,100648.09
2024-01-26T03:51:04.707Z,100646.03
2024-01-26T03:53:32.546Z,100650.83
2024-01-26T03:56:00.216Z,100650.48
2024-01-26T03:58:27.937Z,100651.02
2024-01-26T04:00:55.509Z,100654.11
2024-01-26T04:03:23.252Z,100652.27
2024-01-26T04:05:50.954Z,100646.30
2024-01-26T04:08:18.575Z,100644.11
2024-01-26T04:10:46.386Z,100637.98
2024-01-26T04:13:13.996Z,100635.93
2024-01-26T04:15:42.077Z,100634.38
2024-01-26T04:18:09.826Z,100631.27
2024-01-26T04:20:37.515Z,100635.34
2024-01-26T04:23:05.148Z,100638.37
2024-01-26T04:25:32.710Z,100634.93
2024-01-26T04:28:00.690Z,100640.04
2024-01-26T04:30:28.323Z,100639.88
2024-01-26T04:32:56.025Z,100641.59
2024-01-26T04:35:23.874Z,100646.04
2024-01-26T04:37:51.448Z,100656.13
2024-01-26T04:40:19.410Z,100659.70
2024-01-26T04:42:46.966Z,100665.35
2024-01-26T04:45:14.817Z,100672.20
2024-01-26T04:47:42.763Z,100677.37
2024-01-26T04:50:10.573Z,100676.70
2024-01-26T04:52:40.635Z,100669.00
2024-01-26T04:55:09.978Z,100666.09
2024-01-26T04:57:37.630Z,100665.40
2024-01-26T05:00:05.353Z,100665.73
2024-01-26T05:02:33.184Z,100664.41
2024-01-26T05:05:01.142Z,100659.82
2024-01-26T05:07:28.790Z,100661.01
2024-01-26T05:09:56.351Z,100662.36
2024-01-26T05:12:23.911Z,100665.26
2024-01-26T05:14:51.516Z,100665.27
2024-01-26T05:17:19.275Z,100664.92
2024-01-26T05:19:46.988Z,100664.08
2024-01-26T05:22:14.763Z,100668.86
2024-01-26T05:24:42.324Z,100671.42
2024-01-26T05:27:10.066Z,100674.99
2024-01-26T05:29:37.768Z,100670.18
2024-01-26T05:32:05.826Z,100668.80
2024-01-26T05:34:33.497Z,100667.59
2024-01-26T05:37:01.249Z,100661.79
2024-01-26T05:39:28.821Z,100656.31
2024-01-26T05:41:56.449Z,100657.88
2024-01-26T05:44:24.128Z,100654.46
2024-01-26T05:46:51.792Z,100657.84
2024-01-26T05:49:19.568Z,100659.20
2024-01-26T05:51:47.222Z,100660.02
2024-01-26T05:54:14.897Z,100664.95
2024-01-26T05:56:42.695Z,100665.61
2024-01-26T05:59:10.308Z,100661.98
2024-01-26T06:01:37.966Z,100661.81
2024-01-26T06:04:05.560Z,100662.71
2024-01-26T06:06:33.358Z,100662.74
2024-01-26T06:09:01.311Z,100662.57
2024-01-26T06:11:29.024Z,100662.05
2024-01-26T06:13:56.693Z,100665.77
2024-01-26T06:16:24.788Z,100661.96
2024-01-26T06:18:52.498Z,100663.66
2024-01-26T06:21:20.540Z,100663.83
2024-01-26T06:23:48.271Z,100663.48
2024-01-26T06:26:15.920Z,100663.15
2024-01-26T06:28:43.501Z,100666.25
2024-01-26T06:31:11.139Z,100661.01
2024-01-26T06:33:39.190Z,100662.09
2024-01-26T06:36:07.038Z,100663.16
2024-01-26T06:38:34.682Z,100665.46
2024-01-26T06:41:02.394Z,100672.86
2024-01-26T06:43:29.953Z,100677.35
2024-01-26T06:45:58.038Z,100674.64
2024-01-26T06:48:25.680Z,100678.41
2024-01-26T06:50:53.364Z,100682.05
2024-01-26T06:53:21.023Z,100682.23
2024-01-26T06:55:50.160Z,100683.08
2024-01-26T06:58:19.124Z,100682.22
2024-01-26T07:00:46.743Z,100681.36
2024-01-26T07:03:14.574Z,100677.77
2024-01-26T07:05:42.528Z,100679.83
2024-01-26T07:08:10.448Z,100679.84
2024-01-26T07:10:38.115Z,100685.70
2024-01-26T07:13:05.977Z,100686.93
2024-01-26T07:15:33.525Z,100676.89
2024-01-26T07:18:01.226Z,100674.73
2024-01-26T07:20:28.877Z,100678.52
2024-01-26T07:22:56.520Z,100677.70
2024-01-26T07:25:24.178Z,100683.38
2024-01-26T07:27:51.741Z,100688.36
2024-01-26T07:30:19.475Z,100689.26
2024-01-26T07:32:47.405Z,100693.42
2024-01-26T07:35:15.135Z,100696.21
2024-01-26T07:37:43.090Z,100699.72
2024-01-26T07:40:10.672Z,100696.02
2024-01-26T07:42:38.321Z,100698.96
2024-01-26T07:45:05.988Z,100699.84
2024-01-26T07:47:33.614Z,100700.20
2024-01-26T07:50:01.371Z,100696.27
2024-01-26T07:52:29.068Z,100699.17
2024-01-26T07:54:56.618Z,100701.21
2024-01-26T07:57:24.303Z,100707.21
2024-01-26T07:59:51.991Z,100706.19
2024-01-26T08:02:20.631Z,100701.77
2024-01-26T08:04:50.040Z,100697.35
2024-01-26T08:07:17.825Z,100693.79
2024-01-26T08:09:45.836Z,100691.29
2024-01-26T08:12:24.621Z,100693.42
2024-01-26T08:15:01.300Z,100688.04
2024-01-26T08:17:29.576Z,100682.31
2024-01-26T08:19:57.247Z,100682.94
2024-01-26T08:22:25.491Z,100685.95
2024-01-26T08:24:53.466Z,100685.68
2024-01-26T08:27:22.515Z,100683.20
2024-01-26T08:29:50.363Z,100677.98
2024-01-26T08:32:18.095Z,100679.82
2024-01-26T08:34:45.973Z,100674.29
2024-01-26T08:37:13.854Z,100672.16
2024-01-26T08:39:41.504Z,100670.34
2024-01-26T08:42:09.278Z,100664.55
2024-01-26T08:44:36.838Z,100666.69
2024-01-26T08:47:04.587Z,100664.39
2024-01-26T08:49:32.227Z,100666.88
2024-01-26T08:52:00.434Z,100663.20
2024-01-26T08:54:28.016Z,100663.64
2024-01-26T08:56:55.779Z,100663.52
2024-01-26T08:59:23.403Z,100663.20
2024-01-26T09:01:51.061Z,100654.63
2024-01-26T09:04:18.745Z,100654.27
2024-01-26T09:06:49.752Z,100653.39
2024-01-26T09:09:19.712Z,100652.30
2024-01-26T09:11:47.464Z,100645.05
2024-01-26T09:14:15.003Z,100644.19
2024-01-26T09:16:42.940Z,100642.44
2024-01-26T09:19:10.645Z,100647.41
2024-01-26T09:21:38.475Z,100646.16
2024-01-26T09:24:06.216Z,100641.08
2024-01-26T09:26:33.869Z,100640.77
2024-01-26T09:29:01.804Z,100635.98
2024-01-26T09:31:29.328Z,100634.73
2024-01-26T09:33:57.010Z,100633.74
2024-01-26T09:36:24.690Z,100628.98
2024-01-26T09:38:52.389Z,100626.86
2024-01-26T09:41:20.399Z,100626.35
2024-01-26T09:43:47.944Z,100628.64
2024-01-26T09:46:15.503Z,100626.21
2024-01-26T09:48:43.336Z,100626.46
2024-01-26T09:51:11.081Z,100625.50
2024-01-26T09:53:38.978Z,100621.30
2024-01-26T09:56:06.884Z,100614.25
2024-01-26T09:58:34.426Z,100609.11
2024-01-26T10:01:02.025Z,100608.64
2024-01-26T10:03:33.717Z,100608.38
2024-01-26T10:06:02.871Z,100606.94
2024-01-26T10:08:30.508Z,100602.80
2024-01-26T10:10:58.061Z,100590.08
2024-01-26T10:13:25.818Z,100580.63
2024-01-26T10:15:53.589Z,100571.64
2024-01-26T10:18:21.540Z,100560.42
2024-01-26T10:20:49.255Z,100558.31
2024-01-26T10:23:17.076Z,100556.69
2024-01-26T10:25:44.739Z,100551.96
2024-01-26T10:28:12.309Z,100556.75
2024-01-26T10:30:40.273Z,100554.15
2024-01-26T10:33:08.473Z,100546.15
2024-01-26T10:35:36.452Z,100542.73
2024-01-26T10:38:04.082Z,100543.25
2024-01-26T10:40:32.052Z,100545.52
2024-01-26T10:42:59.805Z,100536.41
2024-01-26T10:45:27.582Z,100534.09
2024-01-26T10:47:55.328Z,100535.45
2024-01-26T10:50:23.215Z,100530.85
2024-01-26T10:52:51.356Z,100517.75
2024-01-26T10:55:19.155Z,100517.59
2024-01-26T10:57:47.120Z,100509.30
2024-01-26T11:00:14.882Z,100506.77
2024-01-26T11:02:42.848Z,100508.19
2024-01-26T11:05:10.713Z,100502.09
2024-01-26T11:07:38.370Z,100498.02
2024-01-26T11:10:05.934Z,100493.67
2024-01-26T11:12:33.593Z,100491.17
2024-01-26T11:15:02.474Z,100485.31
2024-01-26T11:17:30.764Z,100483.02
2024-01-26T11:19:58.319Z,100482.73
2024-01-26T11:22:26.080Z,100481.64
2024-01-26T11:24:53.952Z,100476.70
2024-01-26T11:27:21.702Z,100476.79
2024-01-26T11:29:49.551Z,100473.73
2024-01-26T11:32:17.245Z,100470.73
2024-01-26T11:34:44.834Z,100465.86
2024-01-26T11:37:12.463Z,100456.73
2024-01-26T11:39:40.124Z,100453.91
2024-01-26T11:42:07.860Z,100453.23
2024-01-26T11:44:35.692Z,100444.95
2024-01-26T11:47:03.411Z,100433.12
2024-01-26T11:49:31.423Z,100429.40
2024-01-26T11:51:59.258Z,100421.56
2024-01-26T11:54:26.913Z,100412.54
2024-01-26T11:56:55.005Z,100402.95
2024-01-26T11:59:22.649Z,100394.14
2024-01-26T12:01:50.309Z,100385.65
2024-01-26T12:04:18.278Z,100379.17
2024-01-26T12:06:47.602Z,100374.81
2024-01-26T12:09:16.002Z,100368.27
2024-01-26T12:11:43.731Z,100365.61
2024-01-26T12:14:11.889Z,100362.79
2024-01-26T12:16:39.652Z,100356.87
2024-01-26T12:19:07.336Z,100353.58
2024-01-26T12:21:35.078Z,100346.41
2024-01-26T12:24:02.772Z,100345.66
2024-01-26T12:26:30.400Z,100346.86
2024-01-26T12:28:58.069Z,100345.63
2024-01-26T12:31:25.625Z,100336.14
2024-01-26T12:33:53.466Z,100325.98
2024-01-26T12:36:22.702Z,100315.42
2024-01-26T12:38:50.421Z,100304.52
2024-01-26T12:41:18.212Z,100299.41
2024-01-26T12:43:46.190Z,100292.15
2024-01-26T12:46:14.447Z,100283.63
2024-01-26T12:48:42.251Z,100278.86
2024-01-26T12:51:10.139Z,100278.95
2024-01-26T12:53:37.880Z,100273.91
2024-01-26T12:56:05.409Z,100268.44
2024-01-26T12:58:33.480Z,100264.77
2024-01-26T13:01:01.172Z,100260.41
2024-01-26T13:03:29.090Z,100255.71
2024-01-26T13:05:57.040Z,100251.27
2024-01-26T13:08:24.744Z,100249.42
2024-01-26T13:10:52.422Z,100243.83
2024-01-26T13:13:19.976Z,100239.48
2024-01-26T13:15:47.528Z,100237.80
2024-01-26T13:18:21.797Z,100243.98
2024-01-26T13:20:56.540Z,100237.73
2024-01-26T13:23:24.774Z,100240.38
2024-01-26T13:25:52.401Z,100241.92
2024-01-26T13:28:19.964Z,100241.08
2024-01-26T13:30:47.529Z,100226.98
2024-01-26T13:33:15.210Z,100224.56
2024-01-26T13:35:43.151Z,100215.77
2024-01-26T13:38:10.819Z,100208.66
2024-01-26T13:40:38.473Z,100199.98
2024-01-26T13:43:06.033Z,100199.18
2024-01-26T13:45:34.170Z,100189.74
2024-01-26T13:48:07.789Z,100191.16
2024-01-26T13:50:39.751Z,100177.22
2024-01-26T13:53:07.845Z,100172.74
2024-01-26T13:55:35.499Z,100166.02
2024-01-26T13:58:03.266Z,100167.27
2024-01-26T14:00:30.972Z,100162.33
2024-01-26T14:02:58.895Z,100159.11
2024-01-26T14:05:26.692Z,100156.40
2024-01-26T14:07:54.426Z,100156.97
2024-01-26T14:10:22.401Z,100158.09
2024-01-26T14:12:50.091Z,100149.08
2024-01-26T14:15:17.908Z,100143.69
2024-01-26T14:17:45.751Z,100133.99
2024-01-26T14:20:13.696Z,100123.09
2024-01-26T14:22:41.445Z,100113.00
2024-01-26T14:25:08.999Z,100111.68
2024-01-26T14:27:36.645Z,100106.05
2024-01-26T14:30:04.229Z,100096.83
2024-01-26T14:32:31.994Z,100092.77
2024-01-26T14:34:59.654Z,100088.69
2024-01-26T14:37:29.035Z,100085.47
2024-01-26T14:39:57.817Z,100084.30
2024-01-26T14:42:25.496Z,100082.44
2024-01-26T14:44:53.313Z,100073.52
2024-01-26T14:47:21.106Z,100068.05
2024-01-26T14:49:48.764Z,100070.48
2024-01-26T14:52:16.438Z,100072.04
2024-01-26T14:54:44.494Z,100065.52
2024-01-26T14:57:12.081Z,100060.21
2024-01-26T14:59:40.156Z,100055.95
2024-01-26T15:02:07.698Z,100046.55
2024-01-26T15:04:35.387Z,100031.63
2024-01-26T15:07:03.156Z,100025.13
2024-01-26T15:09:31.023Z,100019.16
2024-01-26T15:11:58.966Z,100021.61
2024-01-26T15:14:26.711Z,100020.78
2024-01-26T15:16:54.272Z,100023.05
2024-01-26T15:19:22.194Z,100019.66
2024-01-26T15:21:49.835Z,100015.21
2024-01-26T15:24:17.726Z,100014.17
2024-01-26T15:26:45.827Z,100022.95
2024-01-26T15:29:13.726Z,100027.94
2024-01-26T15:31:41.282Z,100031.91
2024-01-26T15:34:09.102Z,100016.66
2024-01-26T15:36:36.907Z,100008.11
2024-01-26T15:39:04.701Z,99996.98
2024-01-26T15:41:32.362Z,99996.30
2024-01-26T15:44:00.101Z,99996.84
2024-01-26T15:46:27.765Z,100000.27
2024-01-26T15:48:55.534Z,99997.73
2024-01-26T15:51:23.581Z,100002.04
2024-01-26T15:53:51.197Z,99990.22
2024-01-26T15:56:18.799Z,99980.48
2024-01-26T15:58:46.471Z,99963.52
2024-01-26T16:01:14.061Z,99961.98
2024-01-26T16:03:41.796Z,99959.79
2024-01-26T16:06:09.593Z,99954.13
2024-01-26T16:08:37.473Z,99952.80
2024-01-26T16:11:05.190Z,99952.30
2024-01-26T16:13:32.748Z,99946.65
2024-01-26T16:16:00.848Z,99943.73
2024-01-26T16:18:28.820Z,99944.77
2024-01-26T16:20:56.665Z,99938.77
2024-01-26T16:23:24.330Z,99922.31
2024-01-26T16:25:51.854Z,99910.52
2024-01-26T16:28:19.413Z,99904.17
2024-01-26T16:30:46.975Z,99903.84
2024-01-26T16:33:14.749Z,99900.10
2024-01-26T16:35:42.637Z,99895.81
2024-01-26T16:38:10.169Z,99893.27
2024-01-26T16:40:38.249Z,99894.30
2024-01-26T16:43:05.929Z,99893.80
2024-01-26T16:45:33.602Z,99892.95
2024-01-26T16:48:01.186Z,99887.27
2024-01-26T16:50:28.980Z,99890.52
2024-01-26T16:52:56.648Z,99879.71
2024-01-26T16:55:24.316Z,99876.10
2024-01-26T16:57:51.864Z,99875.91
2024-01-26T17:00:19.478Z,99877.95
2024-01-26T17:02:47.293Z,99879.46
2024-01-26T17:05:15.283Z,99883.27
2024-01-26T17:07:43.028Z,99884.11
2024-01-26T17:10:10.692Z,99883.29
2024-01-26T17:12:38.354Z,99886.76
2024-01-26T17:15:06.149Z,99889.88
2024-01-26T17:17:34.014Z,99893.16
2024-01-26T17:20:01.858Z,99893.71
2024-01-26T17:22:29.516Z,99887.58
2024-01-26T17:24:57.072Z,99881.27
2024-01-26T17:27:24.699Z,99878.55
2024-01-26T17:29:52.506Z,99875.31
2024-01-26T17:32:20.469Z,99873.44
2024-01-26T17:34:48.131Z,99865.06
2024-01-26T17:37:15.930Z,99861.64
2024-01-26T17:39:51.935Z,99853.95
2024-01-26T17:42:27.536Z,99849.34
2024-01-26T17:44:55.372Z,99843.69
2024-01-26T17:47:22.926Z,99843.00
2024-01-26T17:49:50.548Z,99843.87
2024-01-26T17:52:18.135Z,99842.14
2024-01-26T17:54:46.141Z,99838.71
2024-01-26T17:57:13.926Z,99833.58
2024-01-26T17:59:41.585Z,99825.02
2024-01-26T18:02:09.204Z,99821.24
2024-01-26T18:04:36.761Z,99815.95
2024-01-26T18:07:04.438Z,99816.63
2024-01-26T18:09:32.122Z,99816.13
2024-01-26T18:11:59.765Z,99817.33
2024-01-26T18:14:27.428Z,99815.43
2024-01-26T18:16:55.058Z,99814.06
2024-01-26T18:19:23.105Z,99815.27
2024-01-26T18:21:51.016Z,99802.92
2024-01-26T18:24:18.649Z,99798.15
2024-01-26T18:26:46.559Z,99798.66
2024-01-26T18:29:14.196Z,99801.22
2024-01-26T18:31:41.850Z,99800.71
2024-01-26T18:34:09.652Z,99798.15
2024-01-26T18:36:37.383Z,99799.86
2024-01-26T18:39:05.072Z,99795.94
2024-01-26T18:41:32.810Z,99790.28
2024-01-26T18:44:00.782Z,99788.75
2024-01-26T18:46:28.371Z,99790.97
2024-01-26T18:48:56.602Z,99787.90
2024-01-26T18:51:24.625Z,99798.01
2024-01-26T18:53:52.490Z,99808.29
2024-01-26T18:56:20.209Z,99807.25
2024-01-26T18:58:47.980Z,99804.69
2024-01-26T19:01:16.989Z,99805.39
2024-01-26T19:03:45.849Z,99818.59
2024-01-26T19:06:14.193Z,99818.23
2024-01-26T19:08:42.465Z,99805.73
2024-01-26T19:11:10.474Z,99814.30
2024-01-26T19:13:38.150Z,99830.39
2024-01-26T19:16:06.017Z,99835.53
2024-01-26T19:18:34.106Z,99836.22
2024-01-26T19:21:01.971Z,99837.58
2024-01-26T19:23:29.613Z,99843.55
2024-01-26T19:25:57.271Z,99847.13
2024-01-26T19:28:24.916Z,99853.30
2024-01-26T19:30:52.694Z,99854.14
2024-01-26T19:33:20.546Z,99851.21
2024-01-26T19:35:48.831Z,99859.26
2024-01-26T19:38:16.504Z,99867.45
2024-01-26T19:40:44.188Z,99868.42
2024-01-26T19:43:11.811Z,99872.63
2024-01-26T19:45:39.489Z,99872.71
2024-01-26T19:48:07.245Z,99869.02
2024-01-26T19:50:34.899Z,99879.00
2024-01-26T19:53:02.618Z,99884.89
2024-01-26T19:55:30.331Z,99890.80
2024-01-26T19:57:58.408Z,99898.77
2024-01-26T20:00:26.243Z,99900.77
2024-01-26T20:02:53.978Z,99900.21
2024-01-26T20:05:21.702Z,99902.77
2024-01-26T20:07:49.363Z,99910.13
2024-01-26T20:10:17.652Z,99904.42
2024-01-26T20:12:45.289Z,99910.08
2024-01-26T20:15:12.986Z,99916.06
2024-01-26T20:17:40.768Z,99921.54
2024-01-26T20:20:08.488Z,99926.01
2024-01-26T20:22:36.340Z,99928.27
2024-01-26T20:25:04.435Z,99930.35
2024-01-26T20:27:32.134Z,99944.59
2024-01-26T20:29:59.927Z,99942.20
2024-01-26T20:32:27.829Z,99946.69
2024-01-26T20:34:55.692Z,99956.63
2024-01-26T20:37:23.466Z,99962.31
2024-01-26T20:39:51.203Z,99969.51
2024-01-26T20:42:18.820Z,99967.27
2024-01-26T20:44:46.560Z,99972.59
2024-01-26T20:47:14.293Z,99979.61
2024-01-26T20:49:42.279Z,99987.17
2024-01-26T20:52:10.195Z,99986.88
2024-01-26T20:54:38.000Z,99999.07
2024-01-26T20:57:05.573Z,100000.80
2024-01-26T20:59:33.228Z,100008.35
2024-01-26T21:02:00.882Z,100012.32
2024-01-26T21:04:28.647Z,100017.83
2024-01-26T21:06:56.364Z,100026.10
2024-01-26T21:09:24.200Z,100024.06
2024-01-26T21:11:51.869Z,100030.94
2024-01-26T21:14:19.908Z,100030.61
2024-01-26T21:16:47.472Z,100028.39
2024-01-26T21:19:15.213Z,100026.52
2024-01-26T21:21:42.890Z,100036.48
2024-01-26T21:24:10.622Z,100048.85
2024-01-26T21:26:38.220Z,100053.68
2024-01-26T21:29:05.874Z,100055.73
2024-01-26T21:31:33.432Z,100060.38
2024-01-26T21:34:01.122Z,100057.81
2024-01-26T21:36:29.033Z,100057.48
2024-01-26T21:38:57.211Z,100060.41
2024-01-26T21:41:24.898Z,100061.95
2024-01-26T21:43:52.662Z,100064.17
2024-01-26T21:46:20.322Z,100071.22
2024-01-26T21:48:48.223Z,100086.14
2024-01-26T21:51:16.206Z,100098.50
2024-01-26T21:53:44.070Z,100106.39
2024-01-26T21:56:11.895Z,100110.52
2024-01-26T21:58:39.548Z,100114.63
2024-01-26T22:01:07.320Z,100117.56
2024-01-26T22:03:35.383Z,100121.67
2024-01-26T22:06:03.238Z,100120.48
2024-01-26T22:08:30.940Z,100123.07
2024-01-26T22:10:58.682Z,100129.92
2024-01-26T22:13:26.248Z,100137.98
2024-01-26T22:15:53.899Z,100154.61
2024-01-26T22:18:21.613Z,100170.21
2024-01-26T22:20:49.502Z,100187.38
2024-01-26T22:23:17.179Z,100193.71
2024-01-26T22:25:44.742Z,100208.96
2024-01-26T22:28:12.302Z,100217.70
2024-01-26T22:30:40.163Z,100228.67
2024-01-26T22:33:07.812Z,100231.73
2024-01-26T22:35:35.688Z,100245.95
2024-01-26T22:38:03.351Z,100251.42
2024-01-26T22:40:30.918Z,100257.39
2024-01-26T22:42:58.580Z,100266.80
2024-01-26T22:45:26.204Z,100271.77
2024-01-26T22:47:54.122Z,100287.86
2024-01-26T22:50:21.778Z,100280.33
2024-01-26T22:52:49.438Z,100292.48
2024-01-26T22:55:17.409Z,100296.73
2024-01-26T22:57:45.059Z,100294.66
2024-01-26T23:00:12.757Z,100294.63
2024-01-26T23:02:40.457Z,100299.73
2024-01-26T23:05:08.293Z,100304.30
2024-01-26T23:07:35.916Z,100306.88
2024-01-26T23:10:03.580Z,100307.88
2024-01-26T23:12:31.292Z,100311.81
2024-01-26T23:14:59.119Z,100313.85
2024-01-26T23:17:26.657Z,100314.17
2024-01-26T23:19:54.857Z,100321.53
2024-01-26T23:22:22.599Z,100325.44
2024-01-26T23:24:50.259Z,100325.42
2024-01-26T23:27:17.860Z,100325.73
2024-01-26T23:29:45.611Z,100332.91
2024-01-26T23:32:13.362Z,100336.81
2024-01-26T23:34:41.293Z,100335.77
2024-01-26T23:37:08.869Z,100337.27
2024-01-26T23:39:36.469Z,100342.73
2024-01-26T23:42:04.111Z,100337.91
2024-01-26T23:44:31.673Z,100339.43
2024-01-26T23:46:59.721Z,100342.14
2024-01-26T23:49:27.485Z,100348.09
2024-01-26T23:51:55.143Z,100357.65
2024-01-26T23:54:22.935Z,100360.52
2024-01-26T23:56:50.586Z,100368.86
2024-01-26T23:59:18.143Z,100369.67
